createdAt,value
2023-05-05T00:04:23.067Z,7.59
2023-05-05T00:09:28.934Z,7.55
2023-05-05T00:14:35.226Z,7.58
2023-05-05T00:19:42.108Z,7.67
2023-05-05T00:24:47.882Z,7.58
2023-05-05T00:29:52.374Z,7.37
2023-05-05T00:34:57.008Z,7.30
2023-05-05T00:40:02.605Z,7.28
2023-05-05T00:45:11.378Z,7.28
2023-05-05T00:50:29.914Z,7.30
2023-05-05T00:55:35.051Z,7.34
2023-05-05T01:00:38.969Z,7.37
2023-05-05T01:06:06.017Z,7.38
2023-05-05T01:11:29.938Z,7.41
2023-05-05T01:16:35.580Z,7.47
2023-05-05T01:21:47.658Z,7.51
2023-05-05T01:27:02.087Z,7.57
2023-05-05T01:32:16.952Z,7.65
2023-05-05T01:37:31.625Z,7.68
2023-05-05T01:42:38.017Z,7.72
2023-05-05T01:47:43.328Z,7.75
2023-05-05T01:52:48.176Z,7.73
2023-05-05T01:57:52.857Z,7.76
2023-05-05T02:03:00.264Z,7.75
2023-05-05T02:08:06.687Z,7.71
2023-05-05T02:13:13.873Z,7.69
2023-05-05T02:18:20.171Z,7.67
2023-05-05T02:23:31.597Z,7.63
2023-05-05T02:28:49.092Z,7.58
2023-05-05T02:33:56.833Z,7.53
2023-05-05T02:39:10.253Z,7.48
2023-05-05T02:44:14.935Z,7.39
2023-05-05T02:49:20.828Z,7.32
2023-05-05T02:54:27.511Z,7.27
2023-05-05T02:59:57.241Z,7.23
2023-05-05T03:05:25.865Z,7.18
2023-05-05T03:10:35.480Z,7.16
2023-05-05T03:15:46.788Z,7.21
2023-05-05T03:20:52.463Z,7.23
2023-05-05T03:25:56.986Z,7.26
2023-05-05T03:31:15.269Z,7.30
2023-05-05T03:36:19.932Z,7.31
2023-05-05T03:41:25.391Z,7.34
2023-05-05T03:46:50.731Z,7.37
2023-05-05T03:51:55.438Z,7.41
2023-05-05T03:57:00.467Z,7.45
2023-05-05T04:02:05.651Z,7.50
2023-05-05T04:07:10.082Z,7.58
2023-05-05T04:12:15.421Z,7.81
2023-05-05T04:17:21.770Z,7.92
2023-05-05T04:22:26.909Z,7.92
2023-05-05T04:27:31.181Z,7.95
2023-05-05T04:32:36.184Z,8.00
2023-05-05T04:37:42.741Z,8.11
2023-05-05T04:42:47.457Z,8.51
2023-05-05T04:47:52.080Z,9.30
2023-05-05T04:52:57.412Z,10.30
2023-05-05T04:58:02.428Z,11.38
2023-05-05T05:03:09.704Z,12.50
2023-05-05T05:08:20.280Z,12.12
2023-05-05T05:13:24.343Z,11.82
2023-05-05T05:18:28.515Z,11.89
2023-05-05T05:23:34.950Z,11.94
2023-05-05T05:28:41.985Z,11.99
2023-05-05T05:33:48.973Z,12.19
2023-05-05T05:38:53.554Z,12.48
2023-05-05T05:43:57.849Z,12.78
2023-05-05T05:49:03.026Z,13.12
2023-05-05T05:54:09.050Z,13.36
2023-05-05T05:59:14.173Z,13.53
2023-05-05T06:04:18.992Z,13.60
2023-05-05T06:09:23.736Z,13.55
2023-05-05T06:14:28.811Z,13.56
2023-05-05T06:19:33.408Z,13.87
2023-05-05T06:24:38.638Z,14.14
2023-05-05T06:29:42.866Z,14.23
2023-05-05T06:34:48.644Z,14.38
2023-05-05T06:39:52.482Z,14.52
2023-05-05T06:44:56.863Z,14.72
2023-05-05T06:50:01.018Z,14.90
2023-05-05T06:55:05.664Z,15.09
2023-05-05T07:00:11.842Z,15.00
2023-05-05T07:05:15.912Z,14.89
2023-05-05T07:10:20.308Z,15.05
2023-05-05T07:15:29.324Z,15.25
2023-05-05T07:20:34.537Z,15.44
2023-05-05T07:25:38.738Z,15.58
2023-05-05T07:30:42.527Z,15.86
2023-05-05T07:35:46.627Z,16.12
2023-05-05T07:40:50.920Z,16.03
2023-05-05T07:45:55.309Z,16.15
2023-05-05T07:50:59.314Z,16.19
2023-05-05T07:56:03.636Z,16.31
2023-05-05T08:01:11.149Z,16.48
2023-05-05T08:06:22.469Z,16.66
2023-05-05T08:11:28.993Z,16.86
2023-05-05T08:16:33.358Z,16.84
2023-05-05T08:21:37.547Z,16.98
2023-05-05T08:26:41.572Z,17.10
2023-05-05T08:31:45.437Z,17.41
2023-05-05T08:36:50.892Z,17.90
2023-05-05T08:41:55.161Z,18.24
2023-05-05T08:47:02.287Z,18.26
2023-05-05T08:52:09.920Z,18.38
2023-05-05T08:57:15.488Z,18.62
2023-05-05T09:02:24.122Z,18.88
2023-05-05T09:07:28.097Z,18.96
2023-05-05T09:12:32.391Z,19.11
2023-05-05T09:17:36.889Z,19.17
2023-05-05T09:22:43.011Z,19.26
2023-05-05T09:27:49.685Z,19.23
2023-05-05T09:32:55.319Z,19.40
2023-05-05T09:38:12.471Z,19.72
2023-05-05T09:43:17.366Z,19.70
2023-05-05T09:48:29.530Z,19.81
2023-05-05T09:53:41.949Z,19.77
2023-05-05T09:58:45.739Z,19.83
2023-05-05T10:03:52.758Z,20.17
2023-05-05T10:09:02.902Z,20.16
2023-05-05T10:14:07.257Z,20.30
2023-05-05T10:19:16.698Z,20.17
2023-05-05T10:24:34.031Z,20.14
2023-05-05T10:29:48.268Z,20.12
2023-05-05T10:34:55.155Z,20.16
2023-05-05T10:39:59.486Z,20.12
2023-05-05T10:45:03.473Z,20.23
2023-05-05T10:50:13.279Z,20.35
2023-05-05T10:55:21.568Z,20.29
2023-05-05T11:00:40.740Z,20.19
2023-05-05T11:06:08.091Z,20.30
2023-05-05T11:11:12.937Z,20.48
2023-05-05T11:16:45.064Z,20.45
2023-05-05T11:22:04.339Z,20.53
2023-05-05T11:27:08.554Z,20.75
2023-05-05T11:32:14.242Z,20.65
2023-05-05T11:37:18.327Z,20.72
2023-05-05T11:42:28.829Z,20.84
2023-05-05T11:47:33.116Z,21.02
2023-05-05T11:52:37.039Z,21.14
2023-05-05T11:57:40.865Z,21.16
2023-05-05T12:02:44.774Z,21.23
2023-05-05T12:07:48.502Z,21.28
2023-05-05T12:12:55.592Z,21.19
2023-05-05T12:18:02.436Z,21.05
2023-05-05T12:23:12.646Z,20.90
2023-05-05T12:28:16.637Z,20.95
2023-05-05T12:33:20.886Z,21.22
2023-05-05T12:38:27.486Z,21.44
2023-05-05T12:43:35.866Z,21.60
2023-05-05T12:48:48.378Z,21.62
2023-05-05T12:54:12.051Z,21.61
2023-05-05T12:59:22.097Z,21.62
2023-05-05T13:04:27.724Z,21.69
2023-05-05T13:09:31.698Z,21.66
2023-05-05T13:14:36.816Z,21.70
2023-05-05T13:19:46.728Z,21.72
2023-05-05T13:24:52.346Z,21.51
2023-05-05T13:30:11.682Z,21.57
2023-05-05T13:35:16.603Z,21.78
2023-05-05T13:40:22.287Z,21.91
2023-05-05T13:45:29.279Z,21.85
2023-05-05T13:50:33.336Z,21.96
2023-05-05T13:55:38.574Z,21.83
2023-05-05T14:00:42.428Z,21.73
2023-05-05T14:05:46.733Z,21.62
2023-05-05T14:10:52.258Z,21.65
2023-05-05T14:15:58.686Z,21.77
2023-05-05T14:21:02.666Z,21.90
2023-05-05T14:26:09.327Z,21.81
2023-05-05T14:31:14.296Z,21.93
2023-05-05T14:36:18.513Z,22.03
2023-05-05T14:41:22.667Z,21.92
2023-05-05T14:46:27.939Z,21.71
2023-05-05T14:51:32.406Z,21.49
2023-05-05T14:56:37.219Z,21.40
2023-05-05T15:01:41.813Z,21.23
2023-05-05T15:06:46.411Z,21.34
2023-05-05T15:11:50.281Z,21.50
2023-05-05T15:16:57.590Z,21.74
2023-05-05T15:22:01.659Z,21.86
2023-05-05T15:27:06.125Z,21.86
2023-05-05T15:32:10.348Z,21.56
2023-05-05T15:37:15.202Z,21.15
2023-05-05T15:42:19.239Z,20.94
2023-05-05T15:47:26.499Z,20.86
2023-05-05T15:52:32.479Z,21.00
2023-05-05T15:57:36.325Z,21.31
2023-05-05T16:02:41.150Z,21.48
2023-05-05T16:07:49.417Z,21.45
2023-05-05T16:12:53.439Z,21.24
2023-05-05T16:17:57.379Z,21.11
2023-05-05T16:23:01.247Z,20.97
2023-05-05T16:28:05.152Z,20.77
2023-05-05T16:33:09.247Z,20.61
2023-05-05T16:38:14.729Z,20.65
2023-05-05T16:43:19.950Z,20.75
2023-05-05T16:48:23.836Z,21.03
2023-05-05T16:53:27.733Z,21.87
2023-05-05T16:58:31.649Z,22.41
2023-05-05T17:03:36.423Z,22.35
2023-05-05T17:08:41.620Z,21.84
2023-05-05T17:13:45.710Z,21.11
2023-05-05T17:18:49.835Z,20.40
2023-05-05T17:23:54.805Z,19.83
2023-05-05T17:28:58.856Z,19.38
2023-05-05T17:34:02.838Z,19.02
2023-05-05T17:39:06.809Z,18.68
2023-05-05T17:44:10.656Z,18.40
2023-05-05T17:49:15.441Z,18.14
2023-05-05T17:54:19.397Z,17.90
2023-05-05T17:59:23.690Z,17.67
2023-05-05T18:04:27.752Z,17.44
2023-05-05T18:09:32.075Z,17.28
2023-05-05T18:14:36.712Z,17.13
2023-05-05T18:19:46.595Z,16.97
2023-05-05T18:24:59.337Z,16.75
2023-05-05T18:30:05.259Z,16.56
2023-05-05T18:35:10.266Z,16.39
2023-05-05T18:40:14.493Z,16.22
2023-05-05T18:45:23.080Z,16.08
2023-05-05T18:50:27.524Z,15.91
2023-05-05T18:55:32.304Z,15.77
2023-05-05T19:00:36.465Z,15.62
2023-05-05T19:05:41.221Z,15.48
2023-05-05T19:10:45.544Z,15.37
2023-05-05T19:15:52.317Z,15.22
2023-05-05T19:20:56.512Z,15.06
2023-05-05T19:26:02.101Z,14.95
2023-05-05T19:31:06.849Z,14.80
2023-05-05T19:36:12.716Z,14.61
2023-05-05T19:41:18.203Z,14.48
2023-05-05T19:46:24.665Z,14.35
2023-05-05T19:51:28.782Z,14.20
2023-05-05T19:56:33.377Z,14.03
2023-05-05T20:01:37.369Z,13.90
2023-05-05T20:06:41.774Z,13.75
2023-05-05T20:11:46.300Z,13.64
2023-05-05T20:16:50.589Z,13.55
2023-05-05T20:21:55.077Z,13.42
2023-05-05T20:26:58.895Z,13.35
2023-05-05T20:32:02.854Z,13.31
2023-05-05T20:37:06.903Z,13.24
2023-05-05T20:42:11.377Z,13.16
2023-05-05T20:47:17.313Z,13.11
2023-05-05T20:52:21.827Z,13.03
2023-05-05T20:57:26.650Z,12.95
2023-05-05T21:02:32.220Z,12.88
2023-05-05T21:07:36.601Z,12.78
2023-05-05T21:12:41.819Z,12.70
2023-05-05T21:17:46.845Z,12.62
2023-05-05T21:22:51.376Z,12.55
2023-05-05T21:27:56.572Z,12.52
2023-05-05T21:33:02.631Z,12.49
2023-05-05T21:38:08.026Z,12.43
2023-05-05T21:43:13.628Z,12.34
2023-05-05T21:48:18.724Z,12.24
2023-05-05T21:53:25.259Z,12.16
2023-05-05T21:58:29.632Z,12.09
2023-05-05T22:03:35.063Z,12.01
2023-05-05T22:08:41.360Z,11.89
2023-05-05T22:13:46.068Z,11.80
2023-05-05T22:18:50.584Z,11.70
2023-05-05T22:23:54.779Z,11.65
2023-05-05T22:28:59.597Z,11.56
2023-05-05T22:34:05.334Z,11.50
2023-05-05T22:39:09.480Z,11.46
2023-05-05T22:44:13.381Z,11.39
2023-05-05T22:49:17.494Z,11.32
2023-05-05T22:54:23.614Z,11.27
2023-05-05T22:59:29.064Z,11.21
2023-05-05T23:04:33.167Z,11.16
2023-05-05T23:09:37.264Z,11.08
2023-05-05T23:14:41.402Z,11.02
2023-05-05T23:19:48.496Z,10.96
2023-05-05T23:24:52.268Z,10.92
2023-05-05T23:29:56.161Z,10.90
2023-05-05T23:35:00.561Z,10.89
2023-05-05T23:40:05.850Z,10.86
2023-05-05T23:45:10.496Z,10.88
2023-05-05T23:50:15.425Z,10.86
2023-05-05T23:55:19.597Z,10.84
